La Dole, Switzerland
Current Conditions -  °F | °C
As of 7:50 AM on Friday 31 Oct 2014 (Local Time) from LSGG Reporting Station
Light Fog Light Fog  
Wind Chill: 41°   Ceiling: Unl
Heat Index: 41°   Visibility: 0.75mi
Dew Point: 41°   Wind: 1mph
Humidity: 100%   Direction: 290°WNW
Pressure: 30.3"   Gusts: NA
Location:  46.43°N, 6.11°E
Report Text: LSGG 310650Z 29001KT 1200 R05/0650U R23/0300D BR MIFG FEW002 05/05 Q1026 BECMG 5000 FEW003
Loading
Personal Weather Stations






























Interactive Weather Map
Tropical Storm Tracking
New forecast layout! Learn more

10-Day Weather Forecast

Advertisements
Track Severe Weather on mobile